Time;durP1;ratioP1;P1;durP2;ratioP2;P2;SDS_P1;SDS_P2;PMS_P1;PMS_P2;Temp;Humidity;BMP_temperature;BMP_pressure;BME280_temperature;BME280_humidity;BME280_pressure;Samples;Min_cycle;Max_cycle;Signal;HPM_P1;HPM_P2
2022/08/24 00:02:02;;;;;;;11.07;9.48;;;;;;;19.12;100.00;100045.66;5052680;28;20076;-79
2022/08/24 00:04:31;;;;;;;13.57;9.35;;;;;;;19.17;100.00;100040.63;5053064;28;20056;-76
2022/08/24 00:07:00;;;;;;;11.70;9.05;;;;;;;19.13;100.00;100041.97;5052824;28;20045;-78
2022/08/24 00:09:31;;;;;;;13.45;10.35;;;;;;;19.11;100.00;100041.28;5052812;28;20072;-78
2022/08/24 00:12:00;;;;;;;12.52;10.00;;;;;;;19.15;100.00;100042.66;5051444;28;20053;-77
2022/08/24 00:14:28;;;;;;;12.43;9.82;;;;;;;19.08;100.00;100036.16;5052710;28;20409;-78
2022/08/24 00:16:57;;;;;;;11.63;9.88;;;;;;;19.05;100.00;100047.28;5052558;28;20045;-79
2022/08/24 00:19:26;;;;;;;12.25;9.52;;;;;;;19.17;100.00;100056.88;5053055;28;20067;-78
2022/08/24 00:21:55;;;;;;;12.43;10.45;;;;;;;19.05;100.00;100052.69;5051319;28;20045;-78
2022/08/24 00:24:24;;;;;;;12.63;10.50;;;;;;;19.07;100.00;100056.06;5052548;28;20132;-78
2022/08/24 00:26:56;;;;;;;13.25;9.65;;;;;;;19.08;100.00;100046.97;5052378;28;20135;-79
2022/08/24 00:29:24;;;;;;;11.98;9.23;;;;;;;19.12;100.00;100042.97;5052967;28;20048;-78
2022/08/24 00:31:52;;;;;;;12.10;9.52;;;;;;;19.13;100.00;100042.81;5052406;28;20045;-78
2022/08/24 00:34:20;;;;;;;12.70;9.63;;;;;;;19.15;100.00;100039.94;5052752;28;20127;-78
2022/08/24 00:36:48;;;;;;;12.60;10.00;;;;;;;19.12;100.00;100048.38;5052416;28;20549;-79
2022/08/24 00:39:17;;;;;;;14.63;10.60;;;;;;;19.05;100.00;100050.81;5051181;28;20041;-79
2022/08/24 00:41:47;;;;;;;12.25;9.85;;;;;;;19.06;100.00;100048.97;5051365;28;20074;-77
2022/08/24 00:44:18;;;;;;;12.70;10.98;;;;;;;18.98;100.00;100051.56;5052724;28;20052;-77
2022/08/24 00:46:50;;;;;;;12.90;10.40;;;;;;;18.95;100.00;100057.28;5051408;28;20099;-76
2022/08/24 00:49:25;;;;;;;12.02;10.73;;;;;;;18.97;100.00;100050.72;5052682;28;20072;-76
2022/08/24 00:52:12;;;;;;;12.20;10.77;;;;;;;18.94;100.00;100044.78;5052263;28;20033;-76
2022/08/24 00:54:44;;;;;;;12.05;10.10;;;;;;;18.86;100.00;100035.56;5052588;28;20401;-76
2022/08/24 00:57:15;;;;;;;12.35;10.15;;;;;;;18.94;100.00;100036.69;5051268;28;20049;-76
2022/08/24 00:59:50;;;;;;;12.52;10.52;;;;;;;18.94;100.00;100044.78;5052572;28;20398;-76
2022/08/24 01:02:21;;;;;;;14.93;10.13;;;;;;;18.91;100.00;100050.47;5054489;28;20056;-76
2022/08/24 01:04:53;;;;;;;12.80;10.00;;;;;;;18.84;100.00;100045.69;5056137;28;20056;-77
2022/08/24 01:07:22;;;;;;;12.85;10.00;;;;;;;18.91;100.00;100053.16;5056175;28;20040;-76
2022/08/24 01:09:52;;;;;;;12.80;10.15;;;;;;;18.85;100.00;100041.97;5055895;28;20485;-76
2022/08/24 01:12:21;;;;;;;13.63;10.63;;;;;;;18.90;100.00;100048.78;5056096;28;20052;-76
2022/08/24 01:14:50;;;;;;;13.38;10.63;;;;;;;18.83;100.00;100044.00;5055803;28;20102;-78
2022/08/24 01:20:09;;;;;;;12.70;10.10;;;;;;;18.78;100.00;100050.81;5055563;28;20142;-77
2022/08/24 01:22:58;;;;;;;12.05;10.13;;;;;;;18.77;100.00;100058.09;5055752;28;20075;-77
2022/08/24 01:25:30;;;;;;;12.65;10.07;;;;;;;18.79;100.00;100050.66;5055900;28;20133;-78
2022/08/24 01:28:03;;;;;;;15.02;10.50;;;;;;;18.73;100.00;100045.88;5055645;28;20037;-78
2022/08/24 01:30:34;;;;;;;13.85;10.50;;;;;;;18.77;100.00;100052.69;5054678;28;20167;-78
2022/08/24 01:33:06;;;;;;;12.60;9.65;;;;;;;18.74;100.00;100066.50;5055347;28;20072;-78
2022/08/24 01:35:36;;;;;;;13.90;10.80;;;;;;;18.67;100.00;100059.97;5055487;28;20135;-77
2022/08/24 01:38:11;;;;;;;12.80;10.82;;;;;;;18.71;100.00;100072.19;5055221;28;20044;-78
2022/08/24 01:40:45;;;;;;;13.30;10.50;;;;;;;18.61;100.00;100076.72;5055628;28;20075;-77
2022/08/24 01:43:14;;;;;;;13.40;10.50;;;;;;;18.60;100.00;100069.63;5053753;28;20386;-77
2022/08/24 01:45:43;;;;;;;13.95;9.98;;;;;;;18.63;100.00;100074.75;5055095;28;20409;-78
2022/08/24 01:48:12;;;;;;;12.82;10.48;;;;;;;18.56;100.00;100074.50;5054942;28;20045;-78
2022/08/24 01:50:40;;;;;;;14.18;10.32;;;;;;;18.64;100.00;100073.75;5055453;28;20037;-78
2022/08/24 01:53:10;;;;;;;16.58;10.25;;;;;;;18.59;100.00;100068.78;5054969;28;20075;-78
2022/08/24 01:55:40;;;;;;;13.02;10.63;;;;;;;18.64;100.00;100081.88;5055211;28;20048;-78
2022/08/24 01:58:08;;;;;;;16.88;10.40;;;;;;;18.71;100.00;100076.72;5054912;28;20555;-78
2022/08/24 02:00:36;;;;;;;12.48;9.73;;;;;;;18.65;100.00;100062.00;5054937;28;20466;-81
2022/08/24 02:03:05;;;;;;;12.88;10.68;;;;;;;18.58;100.00;100052.72;5055005;28;20124;-78
2022/08/24 02:05:35;;;;;;;13.57;10.20;;;;;;;18.64;100.00;100071.06;5055012;28;20124;-78
2022/08/24 02:08:03;;;;;;;15.23;10.48;;;;;;;18.67;100.00;100076.19;5054737;28;20037;-78
2022/08/24 02:10:32;;;;;;;14.18;9.98;;;;;;;18.65;100.00;100072.78;5055091;28;20052;-78
2022/08/24 02:13:03;;;;;;;13.45;11.05;;;;;;;18.62;100.00;100078.44;5054234;28;20052;-76
2022/08/24 02:15:38;;;;;;;12.95;10.23;;;;;;;18.64;100.00;100078.31;5053649;28;20049;-76
2022/08/24 02:18:08;;;;;;;12.68;10.45;;;;;;;18.57;100.00;100080.75;5054726;28;20437;-76
2022/08/24 02:20:43;;;;;;;13.15;10.43;;;;;;;18.57;100.00;100075.34;5054700;28;20102;-75
2022/08/24 02:23:12;;;;;;;13.23;10.27;;;;;;;18.58;100.00;100079.75;5054372;28;20124;-78
2022/08/24 02:25:40;;;;;;;12.77;10.13;;;;;;;18.65;100.00;100078.19;5054572;28;20067;-78
2022/08/24 02:28:09;;;;;;;12.63;9.63;;;;;;;18.60;100.00;100080.44;5054480;28;20053;-78
2022/08/24 02:30:39;;;;;;;12.38;9.98;;;;;;;18.53;100.00;100074.81;5054506;28;20041;-78
2022/08/24 02:33:08;;;;;;;12.13;9.40;;;;;;;18.50;100.00;100071.53;5054194;28;20041;-74
2022/08/24 02:35:36;;;;;;;15.02;10.75;;;;;;;18.47;100.00;100074.53;5054299;28;20056;-74
2022/08/24 02:38:05;;;;;;;12.50;10.23;;;;;;;18.47;100.00;100075.38;5053953;28;20048;-75
2022/08/24 02:40:33;;;;;;;13.25;10.10;;;;;;;18.39;100.00;100072.56;5054618;28;20047;-75
2022/08/24 02:43:01;;;;;;;12.07;9.85;;;;;;;18.44;100.00;100072.13;5053919;28;20397;-76
2022/08/24 02:45:31;;;;;;;14.57;10.55;;;;;;;18.39;100.00;100074.41;5054174;28;20049;-76
2022/08/24 02:47:59;;;;;;;12.52;10.55;;;;;;;18.42;100.00;100074.09;5053796;28;20044;-78
2022/08/24 02:50:27;;;;;;;14.10;10.80;;;;;;;18.40;100.00;100076.94;5053999;28;20057;-78
2022/08/24 02:52:55;;;;;;;14.30;11.50;;;;;;;18.43;100.00;100082.09;5054009;28;20048;-81
2022/08/24 02:55:24;;;;;;;14.95;11.10;;;;;;;18.32;100.00;100076.81;5054126;28;20074;-78
2022/08/24 02:57:52;;;;;;;12.82;10.85;;;;;;;18.37;100.00;100079.09;5054176;28;20508;-77
2022/08/24 03:00:22;;;;;;;15.90;10.20;;;;;;;18.37;100.00;100071.00;5053896;28;20140;-75
2022/08/24 03:02:53;;;;;;;12.85;9.98;;;;;;;18.35;100.00;100075.72;5053734;28;20398;-75
2022/08/24 03:05:22;;;;;;;13.27;10.45;;;;;;;18.41;100.00;100075.09;5053769;28;20045;-75
2022/08/24 03:07:50;;;;;;;12.13;9.70;;;;;;;18.42;100.00;100072.25;5053544;28;20041;-74
2022/08/24 03:10:20;;;;;;;14.65;10.02;;;;;;;18.30;100.00;100071.56;5053614;28;20148;-77
2022/08/24 03:12:49;;;;;;;12.55;10.10;;;;;;;18.29;100.00;100071.72;5053532;28;20053;-77
2022/08/24 03:15:20;;;;;;;15.13;10.68;;;;;;;18.34;100.00;100074.88;5052302;28;20099;-77
2022/08/24 03:17:49;;;;;;;13.35;9.80;;;;;;;18.39;100.00;100071.69;5052382;28;20452;-78
2022/08/24 03:20:21;;;;;;;12.15;9.93;;;;;;;18.35;100.00;100086.50;5053466;28;20402;-76
2022/08/24 03:22:49;;;;;;;13.77;10.77;;;;;;;18.35;100.00;100083.81;5053846;28;20059;-76
2022/08/24 03:25:19;;;;;;;13.32;10.00;;;;;;;18.30;100.00;100081.53;5052419;28;20045;-76
2022/08/24 03:27:47;;;;;;;13.38;10.25;;;;;;;18.32;100.00;100084.94;5051987;28;20516;-76
2022/08/24 03:30:17;;;;;;;13.65;11.13;;;;;;;18.36;100.00;100085.50;5053108;28;20052;-76
2022/08/24 03:32:46;;;;;;;17.58;11.23;;;;;;;18.35;100.00;100081.09;5052210;28;20060;-76
2022/08/24 03:35:15;;;;;;;15.93;12.30;;;;;;;18.37;100.00;100084.50;5053118;28;20041;-75
2022/08/24 03:37:45;;;;;;;13.43;10.93;;;;;;;18.27;100.00;100085.38;5053421;28;20127;-74
2022/08/24 03:40:14;;;;;;;14.48;11.13;;;;;;;18.37;100.00;100090.75;5053065;28;20048;-78
2022/08/24 03:42:52;;;;;;;14.27;11.15;;;;;;;18.34;100.00;100080.25;5053553;28;20438;-77
2022/08/24 03:45:21;;;;;;;17.58;11.93;;;;;;;18.43;100.00;100083.91;5052766;28;20064;-76
2022/08/24 03:47:50;;;;;;;14.15;10.90;;;;;;;18.44;100.00;100096.44;5051916;28;20064;-76
2022/08/24 03:50:19;;;;;;;14.65;11.88;;;;;;;18.33;100.00;100096.56;5052833;28;20048;-76
2022/08/24 03:52:49;;;;;;;14.70;11.20;;;;;;;18.38;100.00;100086.22;5052992;28;20045;-76
2022/08/24 03:55:18;;;;;;;13.60;10.68;;;;;;;18.20;100.00;100094.19;5052599;28;20044;-76
2022/08/24 03:57:46;;;;;;;17.13;10.63;;;;;;;18.31;100.00;100089.47;5053164;28;20402;-77
2022/08/24 04:00:14;;;;;;;14.48;11.20;;;;;;;18.45;100.00;100092.72;5052874;28;20069;-77
2022/08/24 04:02:44;;;;;;;13.75;10.77;;;;;;;18.39;100.00;100091.47;5053002;28;20055;-77
2022/08/24 04:05:15;;;;;;;17.40;11.63;;;;;;;18.39;100.00;100087.91;5052683;28;20041;-77
2022/08/24 04:07:43;;;;;;;15.68;11.13;;;;;;;18.46;100.00;100087.19;5052979;28;20367;-78
2022/08/24 04:10:13;;;;;;;14.07;10.35;;;;;;;18.54;100.00;100087.31;5052483;28;20489;-77
2022/08/24 04:12:42;;;;;;;13.90;10.70;;;;;;;18.50;100.00;100085.03;5053003;28;20049;-77
2022/08/24 04:15:11;;;;;;;15.93;11.50;;;;;;;18.52;100.00;100073.06;5052609;28;20063;-77
2022/08/24 04:17:40;;;;;;;13.88;11.05;;;;;;;18.56;100.00;100073.66;5052752;28;20044;-77
2022/08/24 04:20:09;;;;;;;13.35;10.18;;;;;;;18.53;100.00;100082.91;5052239;28;20136;-78
2022/08/24 04:22:37;;;;;;;14.73;10.82;;;;;;;18.56;100.00;100084.44;5052698;28;20041;-77
2022/08/24 04:25:06;;;;;;;16.48;11.90;;;;;;;18.62;100.00;100089.25;5052662;28;20065;-77
2022/08/24 04:27:38;;;;;;;17.50;11.18;;;;;;;18.59;100.00;100085.00;5051587;28;20055;-77
2022/08/24 04:30:08;;;;;;;14.55;11.50;;;;;;;18.72;100.00;100090.13;5052612;28;20045;-77
2022/08/24 04:32:36;;;;;;;15.82;11.45;;;;;;;18.73;100.00;100086.41;5052619;28;20045;-76
2022/08/24 04:35:06;;;;;;;14.65;10.88;;;;;;;18.93;100.00;100087.19;5052590;28;20041;-75
2022/08/24 04:37:34;;;;;;;13.50;11.00;;;;;;;18.95;100.00;100093.28;5055338;28;20053;-75
2022/08/24 04:40:03;;;;;;;14.52;10.60;;;;;;;19.09;100.00;100097.31;5056343;28;20041;-76
2022/08/24 04:42:32;;;;;;;14.43;10.98;;;;;;;19.10;100.00;100096.31;5056837;28;20060;-76
2022/08/24 04:45:01;;;;;;;15.95;11.27;;;;;;;19.21;100.00;100090.72;5056550;28;20446;-76
2022/08/24 04:47:30;;;;;;;14.77;10.77;;;;;;;19.21;100.00;100085.31;5056190;28;20500;-76
2022/08/24 04:49:58;;;;;;;15.70;11.15;;;;;;;19.36;100.00;100082.94;5056565;28;20143;-76
2022/08/24 04:52:26;;;;;;;14.80;11.95;;;;;;;19.27;100.00;100089.25;5056089;28;20045;-75
2022/08/24 04:54:54;;;;;;;13.98;10.82;;;;;;;19.41;100.00;100081.47;5056383;28;20033;-75
2022/08/24 04:57:22;;;;;;;15.68;11.48;;;;;;;19.37;100.00;100085.47;5055948;28;20036;-75
2022/08/24 04:59:50;;;;;;;14.38;11.35;;;;;;;19.47;100.00;100088.13;5055935;28;20047;-75
2022/08/24 05:02:21;;;;;;;16.75;11.70;;;;;;;19.55;100.00;100081.94;5056045;28;20041;-74
2022/08/24 05:04:50;;;;;;;15.57;10.95;;;;;;;19.63;100.00;100087.47;5056329;28;20131;-75
2022/08/24 05:07:18;;;;;;;13.77;10.20;;;;;;;19.53;100.00;100083.97;5054529;28;20052;-75
2022/08/24 05:09:47;;;;;;;14.27;10.93;;;;;;;19.87;100.00;100089.53;5056040;28;20041;-75
2022/08/24 05:12:19;;;;;;;13.30;10.53;;;;;;;19.92;100.00;100087.22;5054493;28;20048;-76
2022/08/24 05:14:47;;;;;;;13.50;10.52;;;;;;;19.94;100.00;100088.75;5055009;28;20135;-76
2022/08/24 05:17:15;;;;;;;15.60;11.02;;;;;;;20.09;100.00;100088.22;5055805;28;20493;-76
2022/08/24 05:19:45;;;;;;;14.75;10.63;;;;;;;20.31;100.00;100090.41;5055691;28;20478;-76
2022/08/24 05:22:13;;;;;;;11.90;9.82;;;;;;;20.53;100.00;100098.03;5055582;28;20069;-78
2022/08/24 05:24:41;;;;;;;12.13;9.50;;;;;;;20.50;100.00;100092.09;5055588;28;20049;-74
2022/08/24 05:27:09;;;;;;;12.73;9.18;;;;;;;20.73;100.00;100084.25;5055675;28;20052;-79
2022/08/24 05:29:41;;;;;;;12.98;9.48;;;;;;;20.82;100.00;100081.41;5055853;28;20041;-79
2022/08/24 05:32:10;;;;;;;13.20;9.57;;;;;;;20.74;100.00;100081.38;5054310;28;20128;-79
2022/08/24 05:34:38;;;;;;;12.50;9.65;;;;;;;20.99;100.00;100095.91;5055483;28;20048;-79
2022/08/24 05:37:09;;;;;;;12.50;8.70;;;;;;;21.21;100.00;100088.19;5053773;28;20132;-80
2022/08/24 05:39:37;;;;;;;10.75;7.80;;;;;;;21.45;100.00;100096.44;5055828;28;20041;-78
2022/08/24 05:42:05;;;;;;;10.95;8.50;;;;;;;21.47;100.00;100093.53;5054187;28;20383;-77
2022/08/24 05:44:33;;;;;;;11.75;8.23;;;;;;;21.67;100.00;100095.78;5054072;28;20080;-77
2022/08/24 05:47:02;;;;;;;11.32;8.95;;;;;;;21.85;100.00;100095.63;5054097;28;20076;-77
2022/08/24 05:49:30;;;;;;;11.98;8.35;;;;;;;21.96;100.00;100084.44;5054900;28;20045;-77
2022/08/24 05:51:59;;;;;;;12.80;8.77;;;;;;;21.98;100.00;100086.97;5055399;28;20397;-77
2022/08/24 05:54:28;;;;;;;10.73;7.70;;;;;;;22.08;100.00;100089.56;5055025;28;20131;-77
2022/08/24 05:57:03;;;;;;;12.70;8.00;;;;;;;22.52;100.00;100095.47;5054131;28;20095;-77
2022/08/24 05:59:32;;;;;;;12.32;8.50;;;;;;;22.64;100.00;100094.06;5053649;28;20045;-77
2022/08/24 06:02:00;;;;;;;10.35;7.88;;;;;;;23.30;100.00;100095.53;5053526;28;20049;-77
2022/08/24 06:04:28;;;;;;;10.90;7.60;;;;;;;23.74;100.00;100092.25;5054737;28;20075;-77
2022/08/24 06:06:56;;;;;;;11.02;7.10;;;;;;;24.25;100.00;100084.34;5054871;28;20553;-75
2022/08/24 06:09:24;;;;;;;10.73;6.97;;;;;;;24.52;100.00;100078.31;5053304;28;20048;-75
2022/08/24 06:11:54;;;;;;;9.43;6.60;;;;;;;25.09;100.00;100085.84;5054702;28;20075;-74
2022/08/24 06:14:22;;;;;;;11.73;6.45;;;;;;;25.11;100.00;100072.88;5054662;28;20041;-74
2022/08/24 06:16:54;;;;;;;9.77;7.38;;;;;;;25.03;100.00;100083.88;5054454;28;20474;-74
2022/08/24 06:19:25;;;;;;;9.80;6.70;;;;;;;25.10;100.00;100084.81;5054506;28;20139;-74
2022/08/24 06:21:54;;;;;;;10.13;6.50;;;;;;;25.02;100.00;100087.66;5054622;28;20128;-74
2022/08/24 06:27:19;;;;;;;10.20;6.22;;;;;;;25.69;100.00;100084.66;5052960;28;20132;-74
2022/08/24 06:27:24;;;;;;;7.97;5.97;;;;;;;25.90;100.00;100085.72;5054379;28;20044;-74
2022/08/24 06:29:54;;;;;;;11.60;6.50;;;;;;;26.04;100.00;100089.41;5054706;28;20124;-75
2022/08/24 06:32:22;;;;;;;9.48;6.03;;;;;;;26.43;100.00;100086.19;5054369;28;20076;-75
2022/08/24 06:34:51;;;;;;;8.68;5.70;;;;;;;26.61;100.00;100092.00;5053127;28;20049;-77
2022/08/24 06:37:19;;;;;;;7.53;5.65;;;;;;;26.10;100.00;100103.16;5054304;28;20052;-77
2022/08/24 06:39:47;;;;;;;12.45;6.55;;;;;;;26.60;100.00;100101.28;5054284;28;20044;-76
2022/08/24 06:42:24;;;;;;;8.63;6.13;;;;;;;26.38;100.00;100103.22;5054365;28;20055;-77
2022/08/24 06:44:52;;;;;;;10.32;5.90;;;;;;;25.89;100.00;100106.75;5054015;28;20055;-77
2022/08/24 06:47:21;;;;;;;9.15;5.65;;;;;;;26.11;100.00;100107.56;5053960;28;20041;-76
2022/08/24 06:49:49;;;;;;;9.00;6.00;;;;;;;25.51;100.00;100111.56;5054006;28;20047;-77
2022/08/24 06:52:17;;;;;;;9.23;6.32;;;;;;;24.76;100.00;100114.50;5053363;28;20060;-74
2022/08/24 06:54:45;;;;;;;9.65;5.63;;;;;;;24.62;100.00;100101.72;5052933;28;20456;-78
2022/08/24 06:57:13;;;;;;;8.20;5.70;;;;;;;24.30;100.00;100119.19;5052600;28;20049;-75
2022/08/24 06:59:43;;;;;;;9.23;6.00;;;;;;;24.13;100.00;100113.06;5053752;28;20049;-74
2022/08/24 07:02:14;;;;;;;14.73;7.43;;;;;;;24.12;100.00;100123.09;5052381;28;20413;-75
2022/08/24 07:04:42;;;;;;;10.15;5.90;;;;;;;23.97;100.00;100105.84;5053913;28;20044;-74
2022/08/24 07:07:11;;;;;;;10.25;6.03;;;;;;;23.92;100.00;100111.84;5052411;28;20052;-76
2022/08/24 07:09:39;;;;;;;9.48;6.10;;;;;;;23.89;100.00;100125.84;5053941;28;20048;-74
2022/08/24 07:12:08;;;;;;;7.55;5.45;;;;;;;23.63;100.00;100130.75;5053574;28;20053;-74
2022/08/24 07:14:36;;;;;;;9.63;5.68;;;;;;;23.79;100.00;100138.00;5053541;28;20041;-78
2022/08/24 07:17:05;;;;;;;9.00;5.72;;;;;;;23.87;100.00;100130.63;5053539;28;20072;-78
2022/08/24 07:19:34;;;;;;;10.85;5.22;;;;;;;24.05;100.00;100145.81;5051742;28;20580;-79
2022/08/24 07:22:02;;;;;;;10.15;5.45;;;;;;;23.92;100.00;100143.69;5052352;28;20055;-79
2022/08/24 07:24:31;;;;;;;8.90;5.32;;;;;;;23.94;100.00;100147.09;5053059;28;20492;-79
2022/08/24 07:26:59;;;;;;;10.70;5.82;;;;;;;24.10;100.00;100149.69;5053435;28;20052;-79
2022/08/24 07:29:27;;;;;;;10.80;6.10;;;;;;;24.15;100.00;100150.00;5051845;28;20080;-80
2022/08/24 07:32:16;;;;;;;7.43;5.35;;;;;;;24.39;100.00;100146.22;5053438;28;20120;-79
2022/08/24 07:34:44;;;;;;;12.05;5.63;;;;;;;24.38;100.00;100146.41;5053538;28;20045;-79
2022/08/24 07:37:13;;;;;;;10.93;5.25;;;;;;;24.79;100.00;100146.84;5051922;28;20052;-79
2022/08/24 07:39:41;;;;;;;9.18;5.10;;;;;;;24.69;100.00;100147.13;5053399;28;20401;-79
2022/08/24 07:42:09;;;;;;;9.50;4.90;;;;;;;24.72;100.00;100152.22;5051760;28;20056;-79
2022/08/24 07:44:44;;;;;;;8.38;5.32;;;;;;;24.87;100.00;100149.50;5053285;28;20080;-79
2022/08/24 07:47:12;;;;;;;8.43;4.90;;;;;;;24.90;100.00;100154.59;5051879;28;20064;-79
2022/08/24 07:50:02;;;;;;;8.45;4.68;;;;;;;25.27;100.00;100152.81;5052978;28;20043;-79
2022/08/24 07:52:31;;;;;;;8.07;4.68;;;;;;;25.50;100.00;100152.72;5052818;28;20041;-79
2022/08/24 07:54:59;;;;;;;7.32;4.25;;;;;;;25.21;100.00;100161.78;5051771;28;20147;-79
2022/08/24 07:57:27;;;;;;;8.90;4.53;;;;;;;25.27;100.00;100152.81;5052789;28;20512;-79
2022/08/24 07:59:55;;;;;;;8.40;4.38;;;;;;;25.16;100.00;100154.16;5053024;28;20350;-79
2022/08/24 08:02:23;;;;;;;8.80;4.57;;;;;;;25.15;100.00;100151.63;5051348;28;20175;-79
2022/08/24 08:05:05;;;;;;;8.13;4.47;;;;;;;25.37;100.00;100156.09;5052767;28;20045;-79
2022/08/24 08:07:34;;;;;;;8.55;4.63;;;;;;;25.83;100.00;100158.59;5051497;28;20182;-79
2022/08/24 08:10:02;;;;;;;8.65;4.32;;;;;;;26.05;100.00;100159.44;5052430;28;20053;-79
2022/08/24 08:12:31;;;;;;;7.78;3.75;;;;;;;25.57;100.00;100157.19;5052411;28;20072;-79
2022/08/24 08:14:59;;;;;;;7.95;3.90;;;;;;;25.60;100.00;100162.28;5051578;28;20052;-79
2022/08/24 08:17:27;;;;;;;9.60;4.00;;;;;;;25.58;100.00;100163.53;5052459;28;20124;-80
2022/08/24 08:19:55;;;;;;;10.07;3.90;;;;;;;25.32;100.00;100164.88;5052874;28;20418;-79
2022/08/24 08:25:11;;;;;;;11.57;3.90;;;;;;;25.52;100.00;100170.59;5052747;28;20045;-79
2022/08/24 08:27:39;;;;;;;10.32;4.32;;;;;;;25.75;100.00;100167.72;5051198;28;20045;-80
2022/08/24 08:30:09;;;;;;;8.90;4.10;;;;;;;25.58;100.00;100169.84;5052451;28;20045;-80
2022/08/24 08:32:37;;;;;;;9.73;4.25;;;;;;;25.78;100.00;100164.63;5052463;28;20092;-79
2022/08/24 08:35:06;;;;;;;8.27;4.05;;;;;;;25.94;100.00;100158.06;5052492;28;20079;-81
2022/08/24 08:37:35;;;;;;;9.73;4.47;;;;;;;26.06;100.00;100169.34;5052343;28;20041;-80
2022/08/24 08:40:18;;;;;;;7.47;4.10;;;;;;;25.98;100.00;100178.50;5051345;28;20510;-79
2022/08/24 08:43:06;;;;;;;9.07;4.30;;;;;;;26.19;100.00;100177.69;5052489;28;20123;-79
2022/08/24 08:45:50;;;;;;;8.20;4.30;;;;;;;26.41;100.00;100175.81;5052249;28;20409;-79
2022/08/24 08:48:54;;;;;;;11.13;4.78;;;;;;;26.53;100.00;100174.22;5050911;28;20123;-79
2022/08/24 08:51:52;;;;;;;12.00;4.80;;;;;;;26.76;100.00;100168.53;5042870;28;20057;-80
2022/08/24 08:54:55;;;;;;;9.30;4.38;;;;;;;26.56;100.00;100173.84;5051004;28;20049;-79
2022/08/24 08:57:34;;;;;;;;;;;;;;;26.86;100.00;100169.00;5033544;28;20057;-79
2022/08/24 09:00:14;;;;;;;8.95;4.75;;;;;;;26.85;100.00;100166.47;5052776;28;19928;-80
2022/08/24 09:03:01;;;;;;;9.23;4.85;;;;;;;26.74;100.00;100176.94;5052112;28;20049;-80
2022/08/24 09:05:59;;;;;;;10.63;4.97;;;;;;;26.46;100.00;100173.34;5050985;28;20135;-79
2022/08/24 09:08:44;;;;;;;9.90;4.68;;;;;;;26.61;100.00;100182.28;5051926;28;20131;-78
2022/08/24 09:11:34;;;;;;;11.52;5.28;;;;;;;26.49;100.00;100175.66;5052048;28;20107;-79
2022/08/24 09:14:37;;;;;;;15.27;5.30;;;;;;;26.35;100.00;100171.09;5051063;28;20053;-79
2022/08/24 09:17:23;;;;;;;11.23;5.22;;;;;;;26.51;100.00;100170.84;5052193;28;20049;-79
2022/08/24 09:19:58;;;;;;;;;;;;;;;26.53;100.00;100169.59;5052557;28;20052;-76
2022/08/24 09:22:26;;;;;;;9.18;5.57;;;;;;;26.62;100.00;100172.19;5052496;28;19920;-79
2022/08/24 09:25:10;;;;;;;12.70;5.22;;;;;;;26.49;100.00;100164.72;5055840;28;20119;-80
2022/08/24 09:27:52;;;;;;;13.57;5.55;;;;;;;26.65;100.00;100167.19;5054157;28;20079;-78
2022/08/24 09:30:22;;;;;;;11.85;5.45;;;;;;;26.87;100.00;100165.22;5055417;28;20041;-78
2022/08/24 09:32:58;;;;;;;9.88;5.25;;;;;;;27.17;100.00;100170.50;5054573;28;20080;-78
2022/08/24 09:35:48;;;;;;;11.23;5.40;;;;;;;27.34;100.00;100156.28;5055350;28;20095;-78
2022/08/24 09:38:22;;;;;;;14.07;5.75;;;;;;;27.48;100.00;100161.78;5055480;28;20052;-78
2022/08/24 09:41:27;;;;;;;11.40;5.32;;;;;;;27.44;100.00;100153.16;5054072;28;20060;-78
2022/08/24 09:44:26;;;;;;;13.00;5.18;;;;;;;26.98;100.00;100150.97;5053978;28;20072;-78
2022/08/24 09:47:22;;;;;;;10.38;5.55;;;;;;;27.14;100.00;100160.81;5053941;28;20568;-78
2022/08/24 09:50:19;;;;;;;10.38;5.10;;;;;;;27.41;100.00;100155.44;5055323;28;20067;-78
2022/08/24 09:53:18;;;;;;;13.02;6.30;;;;;;;27.74;100.00;100155.59;5049394;28;20059;-79
2022/08/24 09:56:24;;;;;;;13.48;6.43;;;;;;;27.56;100.00;100145.19;5054196;28;20151;-79
2022/08/24 09:59:13;;;;;;;14.43;6.40;;;;;;;27.71;100.00;100139.59;5055218;28;20045;-79
2022/08/24 10:01:54;;;;;;;13.30;6.80;;;;;;;27.04;100.00;100158.44;5053492;28;20240;-79
2022/08/24 10:04:32;;;;;;;12.57;6.15;;;;;;;26.82;100.00;100146.66;5054764;28;20041;-78
2022/08/24 10:07:08;;;;;;;17.10;7.25;;;;;;;26.81;100.00;100152.34;5053772;28;20516;-79
2022/08/24 10:09:52;;;;;;;16.58;8.27;;;;;;;26.84;100.00;100142.91;5054551;28;20437;-78
2022/08/24 10:12:33;;;;;;;18.02;7.75;;;;;;;26.81;100.00;100144.97;5055014;28;20128;-78
2022/08/24 10:15:08;;;;;;;15.23;7.90;;;;;;;26.63;100.00;100152.84;5055221;28;20097;-78
2022/08/24 10:17:49;;;;;;;16.52;8.52;;;;;;;26.74;100.00;100144.09;5053425;28;20049;-78
2022/08/24 10:20:23;;;;;;;17.05;8.85;;;;;;;26.91;100.00;100143.78;5054877;28;20132;-78
2022/08/24 10:23:18;;;;;;;17.35;8.52;;;;;;;26.98;100.00;100145.50;5054816;28;20048;-78
2022/08/24 10:25:53;;;;;;;19.00;9.10;;;;;;;26.89;100.00;100145.88;5054367;28;20045;-78
2022/08/24 10:28:43;;;;;;;20.95;9.68;;;;;;;27.03;100.00;100158.63;5053551;28;20060;-78
2022/08/24 10:31:18;;;;;;;18.55;8.95;;;;;;;26.99;100.00;100151.81;5053463;28;20048;-78
2022/08/24 10:33:59;;;;;;;15.63;8.60;;;;;;;26.97;100.00;100148.44;5053916;28;20049;-78
2022/08/24 10:36:44;;;;;;;17.27;8.98;;;;;;;26.87;100.00;100148.81;5054274;28;20055;-78
2022/08/24 10:39:42;;;;;;;16.92;9.48;;;;;;;26.99;100.00;100151.81;5054229;28;20482;-78
2022/08/24 10:45:56;;;;;;;17.83;9.30;;;;;;;26.76;100.00;100152.94;5054179;28;20053;-77
2022/08/24 10:49:02;;;;;;;20.30;10.00;;;;;;;26.92;100.00;100157.25;5053950;28;20122;-78
2022/08/24 10:51:50;;;;;;;17.30;8.98;;;;;;;26.90;100.00;100163.97;5045040;28;20048;-78
2022/08/24 10:54:19;;;;;;;18.77;9.52;;;;;;;27.19;100.00;100157.44;5054266;28;20131;-80
2022/08/24 10:56:59;;;;;;;15.27;8.75;;;;;;;27.21;100.00;100155.34;5053671;28;20055;-78
2022/08/24 10:59:33;;;;;;;19.50;9.15;;;;;;;27.25;100.00;100156.66;5053905;28;20076;-78
2022/08/24 11:02:08;;;;;;;21.13;9.32;;;;;;;26.51;100.00;100155.28;5053816;28;20397;-78
2022/08/24 11:04:43;;;;;;;16.88;8.90;;;;;;;26.65;100.00;100160.88;5053767;28;20072;-78
2022/08/24 11:07:20;;;;;;;16.55;8.82;;;;;;;26.59;100.00;100158.91;5053961;28;20481;-78
2022/08/24 11:09:52;;;;;;;19.67;9.07;;;;;;;26.36;100.00;100159.13;5052028;28;20139;-78
2022/08/24 11:12:27;;;;;;;20.37;9.63;;;;;;;26.72;100.00;100161.75;5052278;28;20049;-78
2022/08/24 11:14:58;;;;;;;17.92;9.38;;;;;;;26.69;100.00;100159.41;5052714;28;20127;-78
2022/08/24 11:17:28;;;;;;;18.38;8.57;;;;;;;26.92;100.00;100159.13;5052280;28;20057;-78
2022/08/24 11:19:58;;;;;;;17.73;9.02;;;;;;;26.57;100.00;100164.59;5053692;28;20055;-78
2022/08/24 11:22:36;;;;;;;17.83;9.18;;;;;;;26.34;100.00;100152.97;5052330;28;20174;-78
2022/08/24 11:25:13;;;;;;;16.02;9.32;;;;;;;26.43;100.00;100169.09;5053288;28;20063;-78
2022/08/24 11:27:45;;;;;;;18.38;9.88;;;;;;;26.67;100.00;100166.97;5053201;28;20041;-78
2022/08/24 11:30:23;;;;;;;15.45;9.30;;;;;;;26.48;100.00;100163.88;5053508;28;20049;-78
2022/08/24 11:32:53;;;;;;;17.00;9.20;;;;;;;26.75;100.00;100164.94;5053124;28;20049;-78
2022/08/24 11:35:25;;;;;;;20.00;9.55;;;;;;;26.72;100.00;100169.94;5053079;28;20041;-78
2022/08/24 11:37:58;;;;;;;16.00;8.95;;;;;;;26.84;100.00;100167.53;5053543;28;20431;-77
2022/08/24 11:40:29;;;;;;;15.43;8.47;;;;;;;26.76;100.00;100190.41;5052098;28;20045;-77
2022/08/24 11:43:11;;;;;;;15.95;8.20;;;;;;;26.25;100.00;100169.53;5052990;28;20448;-77
2022/08/24 11:45:44;;;;;;;13.98;8.13;;;;;;;26.37;100.00;100177.22;5052122;28;20119;-77